Saturday, November 18, 2017, 12:08 PM GMT
Back to Local

CYZX, Greenwood, N. S.

Location: , , Canada Lat: 44.983
Local Time: 12:08 PM GMT (12:08 GMT) Lon: -64.917
Time Zone: GMT Elev: 91 ft

Show me the last for .
Show Coded

Time T Td Feel RH Dir Speed Gust Alt SLP Vis Weather Sky Remarks
2017-11-18 11:00 32 27 19 80 290° 15 24 29.77 29.78 15 OVC018 None
2017-11-18 10:00 32 27 19 80 270° 15 23 29.74 29.74 15 OVC018 None
2017-11-18 09:00 32 27 19 80 290° 14 24 29.71 29.72 15 OVC020 None
2017-11-18 08:00 34 27 22 74 290° 14 21 29.70 29.70 15 OVC020 None
2017-11-18 07:31 34 27 25 74 290° 12 - 29.68 29.68 15 OVC020 None
2017-11-18 07:00 34 27 23 74 290° 13 18 29.68 29.68 15 SCT020 OVC030 None
2017-11-18 06:00 34 30 23 86 280° 17 - 29.66 29.67 15 SCT020 OVC030 None
2017-11-18 05:00 34 32 21 93 280° 17 24 29.66 29.66 15 FEW020 OVC030 None
2017-11-18 04:00 36 28 22 74 290° 24 33 29.64 29.64 15 OVC030 None
2017-11-18 03:35 36 28 23 74 290° 14 30 29.64 29.64 15 OVC028 None
2017-11-18 03:00 36 28 23 74 280° 23 30 29.62 29.62 15 BKN020 OVC030 None
2017-11-18 02:00 36 30 23 80 300° 20 28 29.60 29.60 15 OVC024 None
2017-11-18 01:00 36 30 21 80 290° 20 36 29.58 29.58 15 OVC024 None
2017-11-18 00:00 37 32 25 80 280° 18 31 29.56 29.56 15 BKN020 OVC030 None
2017-11-17 23:00 37 32 23 80 290° 26 41 29.54 29.54 15 OVC024 None
2017-11-17 22:00 39 32 27 75 280° 23 33 29.51 29.52 15 BKN024 None
2017-11-17 21:00 39 34 26 80 280° 25 36 29.48 29.48 15 BKN024 None
2017-11-17 20:00 41 36 30 80 280° 20 30 29.44 29.45 15 BKN023 None
2017-11-17 19:00 43 37 31 81 280° 20 36 29.40 29.41 15 -SHRA OVC021 None
2017-11-17 18:51 43 37 32 81 280° 24 33 29.40 29.40 15 -SHRA OVC021 None
2017-11-17 18:00 41 37 29 86 280° 31 37 29.38 29.38 15 FEW013 OVC020 None
2017-11-17 17:18 41 37 30 86 270° 21 31 29.36 29.37 15 FEW013 OVC020 None
2017-11-17 17:00 41 37 29 86 270° 23 33 29.36 29.36 15 -SHRA BKN014 OVC020 None
2017-11-17 16:00 43 41 32 93 270° 22 32 29.34 29.34 6 -SHRA BR OVC014 None
2017-11-17 15:00 41 39 29 93 250° 18 33 29.33 29.34 6 -SHRA BR OVC014 None
2017-11-17 14:18 41 39 32 93 250° 20 - 29.34 29.35 15 -SHRA OVC013 None
2017-11-17 14:00 41 39 32 93 250° 21 - 29.34 29.34 12 -SHRA SCT012 OVC017 None
2017-11-17 13:40 41 39 30 93 230° 23 31 29.34 29.34 6 -SHRA BR SCT011 OVC016 None
2017-11-17 13:23 41 41 32 100 250° 21 - 29.33 29.34 1 -SHRA BR SCT009 OVC016 None
2017-11-17 13:00 41 39 30 93 230° 21 30 29.33 29.34 1 -SHRA BR SCT013 OVC016 None
2017-11-17 12:46 43 39 32 86 230° 20 29 29.33 29.34 1 -SHRA BR SCT011 OVC018 None

Support USWX by starting your Amazon purchase here.